sensor_id;sensor_type;location;lat;lon;timestamp;P1;durP1;ratioP1;P2;durP2;ratioP2
20784;SDS011;10552;45.818;12.896;2022-12-18T00:01:14;0.57;;;0.57;;
20784;SDS011;10552;45.818;12.896;2022-12-18T00:03:50;0.30;;;0.30;;
20784;SDS011;10552;45.818;12.896;2022-12-18T00:06:34;0.70;;;0.50;;
20784;SDS011;10552;45.818;12.896;2022-12-18T00:09:23;1.33;;;1.23;;
20784;SDS011;10552;45.818;12.896;2022-12-18T00:12:06;0.55;;;0.55;;
20784;SDS011;10552;45.818;12.896;2022-12-18T00:14:50;0.50;;;0.50;;
20784;SDS011;10552;45.818;12.896;2022-12-18T00:17:34;0.80;;;0.80;;
20784;SDS011;10552;45.818;12.896;2022-12-18T00:20:17;0.43;;;0.43;;
20784;SDS011;10552;45.818;12.896;2022-12-18T00:23:00;0.60;;;0.60;;
20784;SDS011;10552;45.818;12.896;2022-12-18T00:25:43;5.82;;;0.65;;
20784;SDS011;10552;45.818;12.896;2022-12-18T00:28:26;0.55;;;0.55;;
20784;SDS011;10552;45.818;12.896;2022-12-18T00:31:12;0.28;;;0.28;;
20784;SDS011;10552;45.818;12.896;2022-12-18T00:34:01;0.62;;;0.62;;
20784;SDS011;10552;45.818;12.896;2022-12-18T00:36:46;0.50;;;0.50;;
20784;SDS011;10552;45.818;12.896;2022-12-18T00:39:28;0.47;;;0.47;;
20784;SDS011;10552;45.818;12.896;2022-12-18T00:42:11;0.20;;;0.20;;
20784;SDS011;10552;45.818;12.896;2022-12-18T00:44:59;0.47;;;0.47;;
20784;SDS011;10552;45.818;12.896;2022-12-18T00:47:45;0.30;;;0.30;;
20784;SDS011;10552;45.818;12.896;2022-12-18T00:50:33;0.40;;;0.40;;
20784;SDS011;10552;45.818;12.896;2022-12-18T00:53:16;0.60;;;0.60;;
20784;SDS011;10552;45.818;12.896;2022-12-18T00:56:06;0.70;;;0.70;;
20784;SDS011;10552;45.818;12.896;2022-12-18T00:58:50;0.60;;;0.60;;
20784;SDS011;10552;45.818;12.896;2022-12-18T01:01:40;0.37;;;0.37;;
20784;SDS011;10552;45.818;12.896;2022-12-18T01:04:23;0.62;;;0.40;;
20784;SDS011;10552;45.818;12.896;2022-12-18T01:07:07;0.90;;;0.60;;
20784;SDS011;10552;45.818;12.896;2022-12-18T01:09:52;0.60;;;0.50;;
20784;SDS011;10552;45.818;12.896;2022-12-18T01:12:38;0.50;;;0.50;;
20784;SDS011;10552;45.818;12.896;2022-12-18T01:15:21;0.30;;;0.30;;
20784;SDS011;10552;45.818;12.896;2022-12-18T01:18:04;0.52;;;0.52;;
20784;SDS011;10552;45.818;12.896;2022-12-18T01:20:49;0.37;;;0.37;;
20784;SDS011;10552;45.818;12.896;2022-12-18T01:23:32;0.60;;;0.60;;
20784;SDS011;10552;45.818;12.896;2022-12-18T01:26:15;0.70;;;0.47;;
20784;SDS011;10552;45.818;12.896;2022-12-18T01:28:58;0.65;;;0.65;;
20784;SDS011;10552;45.818;12.896;2022-12-18T01:31:42;0.20;;;0.20;;
20784;SDS011;10552;45.818;12.896;2022-12-18T01:34:25;0.80;;;0.80;;
20784;SDS011;10552;45.818;12.896;2022-12-18T01:37:10;0.30;;;0.30;;
20784;SDS011;10552;45.818;12.896;2022-12-18T01:39:54;0.70;;;0.70;;
20784;SDS011;10552;45.818;12.896;2022-12-18T01:42:37;0.70;;;0.55;;
20784;SDS011;10552;45.818;12.896;2022-12-18T01:45:22;0.30;;;0.30;;
20784;SDS011;10552;45.818;12.896;2022-12-18T01:48:06;0.37;;;0.37;;
20784;SDS011;10552;45.818;12.896;2022-12-18T01:50:50;0.20;;;0.20;;
20784;SDS011;10552;45.818;12.896;2022-12-18T01:53:33;0.35;;;0.35;;
20784;SDS011;10552;45.818;12.896;2022-12-18T01:56:17;0.93;;;0.93;;
20784;SDS011;10552;45.818;12.896;2022-12-18T01:59:05;0.80;;;0.80;;
20784;SDS011;10552;45.818;12.896;2022-12-18T02:01:49;0.77;;;0.77;;
20784;SDS011;10552;45.818;12.896;2022-12-18T02:04:33;0.10;;;0.10;;
20784;SDS011;10552;45.818;12.896;2022-12-18T02:07:24;0.73;;;0.73;;
20784;SDS011;10552;45.818;12.896;2022-12-18T02:10:07;0.57;;;0.57;;
20784;SDS011;10552;45.818;12.896;2022-12-18T02:13:20;0.70;;;0.70;;
20784;SDS011;10552;45.818;12.896;2022-12-18T02:16:08;0.73;;;0.73;;
20784;SDS011;10552;45.818;12.896;2022-12-18T02:18:50;0.37;;;0.37;;
20784;SDS011;10552;45.818;12.896;2022-12-18T02:21:36;0.25;;;0.25;;
20784;SDS011;10552;45.818;12.896;2022-12-18T02:24:23;0.70;;;0.70;;
20784;SDS011;10552;45.818;12.896;2022-12-18T02:27:03;0.60;;;0.60;;
20784;SDS011;10552;45.818;12.896;2022-12-18T02:29:47;0.40;;;0.40;;
20784;SDS011;10552;45.818;12.896;2022-12-18T02:32:29;0.70;;;0.70;;
20784;SDS011;10552;45.818;12.896;2022-12-18T02:35:13;0.68;;;0.68;;
20784;SDS011;10552;45.818;12.896;2022-12-18T02:37:55;0.15;;;0.15;;
20784;SDS011;10552;45.818;12.896;2022-12-18T02:40:39;0.37;;;0.37;;
20784;SDS011;10552;45.818;12.896;2022-12-18T02:43:22;0.70;;;0.70;;
20784;SDS011;10552;45.818;12.896;2022-12-18T02:46:20;0.77;;;0.77;;
20784;SDS011;10552;45.818;12.896;2022-12-18T02:48:59;0.37;;;0.37;;
20784;SDS011;10552;45.818;12.896;2022-12-18T02:51:43;1.10;;;0.80;;
20784;SDS011;10552;45.818;12.896;2022-12-18T02:54:27;2.65;;;0.90;;
20784;SDS011;10552;45.818;12.896;2022-12-18T02:57:19;1.25;;;1.15;;
20784;SDS011;10552;45.818;12.896;2022-12-18T03:00:10;0.30;;;0.30;;
20784;SDS011;10552;45.818;12.896;2022-12-18T03:02:59;0.50;;;0.50;;
20784;SDS011;10552;45.818;12.896;2022-12-18T03:05:45;0.50;;;0.50;;
20784;SDS011;10552;45.818;12.896;2022-12-18T03:08:29;0.80;;;0.80;;
20784;SDS011;10552;45.818;12.896;2022-12-18T03:11:13;0.70;;;0.70;;
20784;SDS011;10552;45.818;12.896;2022-12-18T03:14:02;0.10;;;0.10;;
20784;SDS011;10552;45.818;12.896;2022-12-18T03:16:45;1.20;;;0.85;;
20784;SDS011;10552;45.818;12.896;2022-12-18T03:19:29;0.82;;;0.80;;
20784;SDS011;10552;45.818;12.896;2022-12-18T03:22:12;0.80;;;0.80;;
20784;SDS011;10552;45.818;12.896;2022-12-18T03:24:55;0.98;;;0.68;;
20784;SDS011;10552;45.818;12.896;2022-12-18T03:27:27;0.10;;;0.10;;
20784;SDS011;10552;45.818;12.896;2022-12-18T03:30:11;0.10;;;0.10;;
20784;SDS011;10552;45.818;12.896;2022-12-18T03:33:04;0.45;;;0.45;;
20784;SDS011;10552;45.818;12.896;2022-12-18T03:35:45;1.10;;;0.95;;
20784;SDS011;10552;45.818;12.896;2022-12-18T03:38:31;0.00;;;0.00;;
20784;SDS011;10552;45.818;12.896;2022-12-18T03:41:19;2.10;;;1.37;;
20784;SDS011;10552;45.818;12.896;2022-12-18T03:54:36;0.40;;;0.40;;
20784;SDS011;10552;45.818;12.896;2022-12-18T03:57:20;0.68;;;0.68;;
20784;SDS011;10552;45.818;12.896;2022-12-18T04:00:10;0.40;;;0.28;;
20784;SDS011;10552;45.818;12.896;2022-12-18T04:02:57;0.62;;;0.62;;
20784;SDS011;10552;45.818;12.896;2022-12-18T04:05:40;0.77;;;0.77;;
20784;SDS011;10552;45.818;12.896;2022-12-18T04:08:25;0.60;;;0.60;;
20784;SDS011;10552;45.818;12.896;2022-12-18T04:11:09;1.52;;;0.70;;
20784;SDS011;10552;45.818;12.896;2022-12-18T04:13:56;0.95;;;0.57;;
20784;SDS011;10552;45.818;12.896;2022-12-18T04:16:39;0.52;;;0.52;;
20784;SDS011;10552;45.818;12.896;2022-12-18T04:19:22;0.10;;;0.10;;
20784;SDS011;10552;45.818;12.896;2022-12-18T04:22:05;0.57;;;0.57;;
20784;SDS011;10552;45.818;12.896;2022-12-18T04:24:48;0.17;;;0.17;;
20784;SDS011;10552;45.818;12.896;2022-12-18T04:27:38;1.20;;;0.77;;
20784;SDS011;10552;45.818;12.896;2022-12-18T04:30:22;0.77;;;0.77;;
20784;SDS011;10552;45.818;12.896;2022-12-18T04:33:09;0.60;;;0.60;;
20784;SDS011;10552;45.818;12.896;2022-12-18T04:35:52;1.80;;;1.17;;
20784;SDS011;10552;45.818;12.896;2022-12-18T04:38:35;1.27;;;1.05;;
20784;SDS011;10552;45.818;12.896;2022-12-18T04:41:19;1.27;;;1.17;;
20784;SDS011;10552;45.818;12.896;2022-12-18T04:44:04;0.80;;;0.80;;
20784;SDS011;10552;45.818;12.896;2022-12-18T04:46:48;0.68;;;0.68;;
20784;SDS011;10552;45.818;12.896;2022-12-18T04:49:31;0.95;;;0.95;;
20784;SDS011;10552;45.818;12.896;2022-12-18T04:52:15;0.60;;;0.60;;
20784;SDS011;10552;45.818;12.896;2022-12-18T04:54:58;0.75;;;0.75;;
20784;SDS011;10552;45.818;12.896;2022-12-18T04:57:42;1.23;;;1.02;;
20784;SDS011;10552;45.818;12.896;2022-12-18T05:00:15;1.20;;;0.50;;
20784;SDS011;10552;45.818;12.896;2022-12-18T05:03:01;0.10;;;0.10;;
20784;SDS011;10552;45.818;12.896;2022-12-18T05:05:45;0.70;;;0.70;;
20784;SDS011;10552;45.818;12.896;2022-12-18T05:08:34;0.20;;;0.20;;
20784;SDS011;10552;45.818;12.896;2022-12-18T05:11:18;1.45;;;0.88;;
20784;SDS011;10552;45.818;12.896;2022-12-18T05:14:02;3.25;;;1.02;;
20784;SDS011;10552;45.818;12.896;2022-12-18T05:16:45;0.30;;;0.30;;
20784;SDS011;10552;45.818;12.896;2022-12-18T05:19:29;1.60;;;1.05;;
20784;SDS011;10552;45.818;12.896;2022-12-18T05:22:12;0.85;;;0.85;;
20784;SDS011;10552;45.818;12.896;2022-12-18T05:24:57;1.35;;;0.95;;
20784;SDS011;10552;45.818;12.896;2022-12-18T05:27:41;0.00;;;0.00;;
20784;SDS011;10552;45.818;12.896;2022-12-18T05:30:24;0.47;;;0.47;;
20784;SDS011;10552;45.818;12.896;2022-12-18T05:33:08;0.73;;;0.73;;
20784;SDS011;10552;45.818;12.896;2022-12-18T05:35:54;1.23;;;1.10;;
20784;SDS011;10552;45.818;12.896;2022-12-18T05:38:25;0.23;;;0.23;;
20784;SDS011;10552;45.818;12.896;2022-12-18T05:41:08;0.20;;;0.20;;
20784;SDS011;10552;45.818;12.896;2022-12-18T05:43:51;0.73;;;0.57;;
20784;SDS011;10552;45.818;12.896;2022-12-18T05:46:41;0.00;;;0.00;;
20784;SDS011;10552;45.818;12.896;2022-12-18T05:49:24;0.98;;;0.90;;
20784;SDS011;10552;45.818;12.896;2022-12-18T05:52:08;0.80;;;0.80;;
20784;SDS011;10552;45.818;12.896;2022-12-18T05:54:52;1.08;;;1.08;;
20784;SDS011;10552;45.818;12.896;2022-12-18T05:57:37;0.20;;;0.20;;
20784;SDS011;10552;45.818;12.896;2022-12-18T06:00:20;3.72;;;2.12;;
20784;SDS011;10552;45.818;12.896;2022-12-18T06:02:53;1.07;;;1.07;;
20784;SDS011;10552;45.818;12.896;2022-12-18T06:05:37;0.60;;;0.60;;
20784;SDS011;10552;45.818;12.896;2022-12-18T06:08:20;1.12;;;1.12;;
20784;SDS011;10552;45.818;12.896;2022-12-18T06:11:09;0.10;;;0.10;;
20784;SDS011;10552;45.818;12.896;2022-12-18T06:14:01;0.82;;;0.82;;
20784;SDS011;10552;45.818;12.896;2022-12-18T06:16:45;1.50;;;1.08;;
20784;SDS011;10552;45.818;12.896;2022-12-18T06:19:32;0.10;;;0.10;;
20784;SDS011;10552;45.818;12.896;2022-12-18T06:22:15;0.80;;;0.80;;
20784;SDS011;10552;45.818;12.896;2022-12-18T06:25:05;0.20;;;0.20;;
20784;SDS011;10552;45.818;12.896;2022-12-18T06:27:49;0.93;;;0.90;;
20784;SDS011;10552;45.818;12.896;2022-12-18T06:30:42;0.28;;;0.28;;
20784;SDS011;10552;45.818;12.896;2022-12-18T06:33:25;0.80;;;0.73;;
20784;SDS011;10552;45.818;12.896;2022-12-18T06:36:08;0.68;;;0.68;;
20784;SDS011;10552;45.818;12.896;2022-12-18T06:38:50;0.20;;;0.20;;
20784;SDS011;10552;45.818;12.896;2022-12-18T06:41:39;0.88;;;0.88;;
20784;SDS011;10552;45.818;12.896;2022-12-18T06:44:30;0.17;;;0.17;;
20784;SDS011;10552;45.818;12.896;2022-12-18T06:47:13;0.95;;;0.95;;
20784;SDS011;10552;45.818;12.896;2022-12-18T06:49:56;1.12;;;1.05;;
20784;SDS011;10552;45.818;12.896;2022-12-18T06:52:39;0.10;;;0.10;;
20784;SDS011;10552;45.818;12.896;2022-12-18T06:55:25;0.90;;;0.90;;
20784;SDS011;10552;45.818;12.896;2022-12-18T06:58:09;0.40;;;0.40;;
20784;SDS011;10552;45.818;12.896;2022-12-18T07:00:52;0.05;;;0.05;;
20784;SDS011;10552;45.818;12.896;2022-12-18T07:03:41;0.10;;;0.10;;
20784;SDS011;10552;45.818;12.896;2022-12-18T07:06:25;1.27;;;1.17;;
20784;SDS011;10552;45.818;12.896;2022-12-18T07:09:08;1.48;;;1.08;;
20784;SDS011;10552;45.818;12.896;2022-12-18T07:11:52;0.20;;;0.20;;
20784;SDS011;10552;45.818;12.896;2022-12-18T07:14:42;0.37;;;0.37;;
20784;SDS011;10552;45.818;12.896;2022-12-18T07:17:25;0.90;;;0.90;;
20784;SDS011;10552;45.818;12.896;2022-12-18T07:20:14;0.30;;;0.30;;
20784;SDS011;10552;45.818;12.896;2022-12-18T07:22:58;1.17;;;1.17;;
20784;SDS011;10552;45.818;12.896;2022-12-18T07:25:41;0.30;;;0.30;;
20784;SDS011;10552;45.818;12.896;2022-12-18T07:28:26;1.50;;;0.90;;
20784;SDS011;10552;45.818;12.896;2022-12-18T07:31:12;0.15;;;0.15;;
20784;SDS011;10552;45.818;12.896;2022-12-18T07:33:54;0.73;;;0.73;;
20784;SDS011;10552;45.818;12.896;2022-12-18T07:36:37;0.95;;;0.93;;
20784;SDS011;10552;45.818;12.896;2022-12-18T07:39:20;0.88;;;0.85;;
20784;SDS011;10552;45.818;12.896;2022-12-18T07:42:04;0.30;;;0.30;;
20784;SDS011;10552;45.818;12.896;2022-12-18T07:55:27;0.27;;;0.27;;
20784;SDS011;10552;45.818;12.896;2022-12-18T07:58:17;0.00;;;0.00;;
20784;SDS011;10552;45.818;12.896;2022-12-18T08:01:04;4.45;;;1.40;;
20784;SDS011;10552;45.818;12.896;2022-12-18T08:03:46;1.00;;;0.90;;
20784;SDS011;10552;45.818;12.896;2022-12-18T08:06:30;0.17;;;0.17;;
20784;SDS011;10552;45.818;12.896;2022-12-18T08:09:13;1.40;;;1.30;;
20784;SDS011;10552;45.818;12.896;2022-12-18T08:11:56;0.98;;;0.98;;
20784;SDS011;10552;45.818;12.896;2022-12-18T08:14:42;0.60;;;0.60;;
20784;SDS011;10552;45.818;12.896;2022-12-18T08:17:24;0.50;;;0.50;;
20784;SDS011;10552;45.818;12.896;2022-12-18T08:20:10;0.70;;;0.70;;
20784;SDS011;10552;45.818;12.896;2022-12-18T08:22:54;0.50;;;0.50;;
20784;SDS011;10552;45.818;12.896;2022-12-18T08:25:38;0.62;;;0.62;;
20784;SDS011;10552;45.818;12.896;2022-12-18T08:28:22;0.55;;;0.55;;
20784;SDS011;10552;45.818;12.896;2022-12-18T08:31:05;1.42;;;0.60;;
20784;SDS011;10552;45.818;12.896;2022-12-18T08:33:49;0.52;;;0.52;;
20784;SDS011;10552;45.818;12.896;2022-12-18T08:36:32;0.43;;;0.43;;
20784;SDS011;10552;45.818;12.896;2022-12-18T08:39:15;0.50;;;0.50;;
20784;SDS011;10552;45.818;12.896;2022-12-18T08:42:05;0.80;;;0.80;;
20784;SDS011;10552;45.818;12.896;2022-12-18T08:44:54;1.58;;;1.00;;
20784;SDS011;10552;45.818;12.896;2022-12-18T08:47:43;1.08;;;0.75;;
20784;SDS011;10552;45.818;12.896;2022-12-18T08:50:26;0.90;;;0.90;;
20784;SDS011;10552;45.818;12.896;2022-12-18T08:53:16;0.62;;;0.60;;
20784;SDS011;10552;45.818;12.896;2022-12-18T08:55:59;1.10;;;0.80;;
20784;SDS011;10552;45.818;12.896;2022-12-18T08:58:51;0.50;;;0.50;;
20784;SDS011;10552;45.818;12.896;2022-12-18T09:01:38;2.00;;;1.40;;
20784;SDS011;10552;45.818;12.896;2022-12-18T09:04:22;0.80;;;0.80;;
20784;SDS011;10552;45.818;12.896;2022-12-18T09:07:05;0.70;;;0.70;;
20784;SDS011;10552;45.818;12.896;2022-12-18T09:09:47;1.10;;;0.80;;
20784;SDS011;10552;45.818;12.896;2022-12-18T09:12:31;0.47;;;0.47;;
20784;SDS011;10552;45.818;12.896;2022-12-18T09:15:15;0.75;;;0.75;;
20784;SDS011;10552;45.818;12.896;2022-12-18T09:17:59;0.62;;;0.62;;
20784;SDS011;10552;45.818;12.896;2022-12-18T09:20:45;0.75;;;0.75;;
20784;SDS011;10552;45.818;12.896;2022-12-18T09:23:28;1.10;;;1.00;;
20784;SDS011;10552;45.818;12.896;2022-12-18T09:26:13;0.90;;;0.90;;
20784;SDS011;10552;45.818;12.896;2022-12-18T09:28:59;0.62;;;0.62;;
20784;SDS011;10552;45.818;12.896;2022-12-18T09:31:43;0.30;;;0.30;;
20784;SDS011;10552;45.818;12.896;2022-12-18T09:34:27;0.50;;;0.50;;
20784;SDS011;10552;45.818;12.896;2022-12-18T09:37:11;0.80;;;0.80;;
20784;SDS011;10552;45.818;12.896;2022-12-18T09:39:55;0.60;;;0.60;;
20784;SDS011;10552;45.818;12.896;2022-12-18T09:42:38;0.50;;;0.50;;
20784;SDS011;10552;45.818;12.896;2022-12-18T09:45:41;0.50;;;0.50;;
20784;SDS011;10552;45.818;12.896;2022-12-18T09:48:25;0.50;;;0.50;;
20784;SDS011;10552;45.818;12.896;2022-12-18T09:54:02;0.73;;;0.73;;
20784;SDS011;10552;45.818;12.896;2022-12-18T09:56:44;0.70;;;0.70;;
20784;SDS011;10552;45.818;12.896;2022-12-18T09:59:31;1.40;;;1.30;;
20784;SDS011;10552;45.818;12.896;2022-12-18T10:02:15;0.60;;;0.60;;
20784;SDS011;10552;45.818;12.896;2022-12-18T10:05:10;0.30;;;0.30;;
20784;SDS011;10552;45.818;12.896;2022-12-18T10:07:55;0.33;;;0.33;;
20784;SDS011;10552;45.818;12.896;2022-12-18T10:10:48;0.50;;;0.50;;
20784;SDS011;10552;45.818;12.896;2022-12-18T10:13:37;0.70;;;0.70;;
20784;SDS011;10552;45.818;12.896;2022-12-18T10:16:43;0.40;;;0.40;;
20784;SDS011;10552;45.818;12.896;2022-12-18T10:19:32;0.30;;;0.30;;
20784;SDS011;10552;45.818;12.896;2022-12-18T10:22:22;0.53;;;0.53;;
20784;SDS011;10552;45.818;12.896;2022-12-18T10:25:21;0.30;;;0.30;;
20784;SDS011;10552;45.818;12.896;2022-12-18T10:28:10;1.10;;;1.10;;
20784;SDS011;10552;45.818;12.896;2022-12-18T10:30:50;0.53;;;0.53;;
20784;SDS011;10552;45.818;12.896;2022-12-18T10:33:34;0.50;;;0.50;;
20784;SDS011;10552;45.818;12.896;2022-12-18T10:36:17;0.20;;;0.20;;
20784;SDS011;10552;45.818;12.896;2022-12-18T10:39:20;0.90;;;0.77;;
20784;SDS011;10552;45.818;12.896;2022-12-18T10:45:00;0.80;;;0.80;;
20784;SDS011;10552;45.818;12.896;2022-12-18T10:47:43;0.90;;;0.90;;
20784;SDS011;10552;45.818;12.896;2022-12-18T10:50:31;0.20;;;0.20;;
20784;SDS011;10552;45.818;12.896;2022-12-18T10:53:13;0.60;;;0.60;;
20784;SDS011;10552;45.818;12.896;2022-12-18T10:55:56;1.80;;;0.80;;
20784;SDS011;10552;45.818;12.896;2022-12-18T10:58:39;0.50;;;0.50;;
20784;SDS011;10552;45.818;12.896;2022-12-18T11:01:22;0.20;;;0.20;;
20784;SDS011;10552;45.818;12.896;2022-12-18T11:04:08;0.10;;;0.10;;
20784;SDS011;10552;45.818;12.896;2022-12-18T11:06:59;0.50;;;0.50;;
20784;SDS011;10552;45.818;12.896;2022-12-18T11:09:41;0.50;;;0.50;;
20784;SDS011;10552;45.818;12.896;2022-12-18T11:12:25;0.60;;;0.60;;
20784;SDS011;10552;45.818;12.896;2022-12-18T11:15:13;0.20;;;0.20;;
20784;SDS011;10552;45.818;12.896;2022-12-18T11:17:51;0.50;;;0.50;;
20784;SDS011;10552;45.818;12.896;2022-12-18T11:20:34;0.47;;;0.47;;
20784;SDS011;10552;45.818;12.896;2022-12-18T11:23:18;0.70;;;0.70;;
20784;SDS011;10552;45.818;12.896;2022-12-18T11:26:03;0.23;;;0.23;;
20784;SDS011;10552;45.818;12.896;2022-12-18T11:28:52;0.30;;;0.30;;
20784;SDS011;10552;45.818;12.896;2022-12-18T11:31:35;0.57;;;0.57;;
20784;SDS011;10552;45.818;12.896;2022-12-18T11:34:27;0.50;;;0.50;;
20784;SDS011;10552;45.818;12.896;2022-12-18T11:37:12;0.70;;;0.70;;
20784;SDS011;10552;45.818;12.896;2022-12-18T11:39:57;0.53;;;0.53;;
20784;SDS011;10552;45.818;12.896;2022-12-18T11:42:41;0.50;;;0.50;;
20784;SDS011;10552;45.818;12.896;2022-12-18T11:45:25;1.00;;;1.00;;
20784;SDS011;10552;45.818;12.896;2022-12-18T11:48:13;0.60;;;0.60;;
20784;SDS011;10552;45.818;12.896;2022-12-18T11:50:52;0.10;;;0.10;;
20784;SDS011;10552;45.818;12.896;2022-12-18T11:53:35;0.40;;;0.40;;
20784;SDS011;10552;45.818;12.896;2022-12-18T11:56:27;0.60;;;0.60;;
20784;SDS011;10552;45.818;12.896;2022-12-18T11:59:19;0.30;;;0.30;;
20784;SDS011;10552;45.818;12.896;2022-12-18T12:02:11;1.00;;;1.00;;
20784;SDS011;10552;45.818;12.896;2022-12-18T12:07:55;0.50;;;0.50;;
20784;SDS011;10552;45.818;12.896;2022-12-18T12:13:50;0.47;;;0.47;;
20784;SDS011;10552;45.818;12.896;2022-12-18T12:16:37;0.40;;;0.40;;
20784;SDS011;10552;45.818;12.896;2022-12-18T12:19:23;0.87;;;0.87;;
20784;SDS011;10552;45.818;12.896;2022-12-18T12:22:10;0.50;;;0.50;;
20784;SDS011;10552;45.818;12.896;2022-12-18T12:24:58;0.60;;;0.60;;
20784;SDS011;10552;45.818;12.896;2022-12-18T12:30:32;0.57;;;0.57;;
20784;SDS011;10552;45.818;12.896;2022-12-18T12:33:23;0.47;;;0.47;;
20784;SDS011;10552;45.818;12.896;2022-12-18T12:35:56;0.13;;;0.13;;
20784;SDS011;10552;45.818;12.896;2022-12-18T12:38:26;0.30;;;0.30;;
20784;SDS011;10552;45.818;12.896;2022-12-18T12:41:09;0.40;;;0.40;;
20784;SDS011;10552;45.818;12.896;2022-12-18T12:43:52;0.20;;;0.20;;
20784;SDS011;10552;45.818;12.896;2022-12-18T12:46:37;0.83;;;0.83;;
20784;SDS011;10552;45.818;12.896;2022-12-18T12:49:26;0.67;;;0.57;;
20784;SDS011;10552;45.818;12.896;2022-12-18T12:52:12;0.77;;;0.77;;
20784;SDS011;10552;45.818;12.896;2022-12-18T12:54:54;0.70;;;0.57;;
20784;SDS011;10552;45.818;12.896;2022-12-18T12:57:34;0.80;;;0.80;;
20784;SDS011;10552;45.818;12.896;2022-12-18T13:00:21;0.23;;;0.23;;
20784;SDS011;10552;45.818;12.896;2022-12-18T13:03:12;0.63;;;0.63;;
20784;SDS011;10552;45.818;12.896;2022-12-18T13:05:55;0.50;;;0.50;;
20784;SDS011;10552;45.818;12.896;2022-12-18T13:11:28;0.83;;;0.83;;
20784;SDS011;10552;45.818;12.896;2022-12-18T13:14:24;0.60;;;0.60;;
20784;SDS011;10552;45.818;12.896;2022-12-18T13:17:27;0.60;;;0.60;;
20784;SDS011;10552;45.818;12.896;2022-12-18T13:20:12;2.00;;;0.80;;
20784;SDS011;10552;45.818;12.896;2022-12-18T13:22:54;0.27;;;0.27;;
20784;SDS011;10552;45.818;12.896;2022-12-18T13:25:38;0.30;;;0.30;;
20784;SDS011;10552;45.818;12.896;2022-12-18T13:34:20;0.90;;;0.90;;
20784;SDS011;10552;45.818;12.896;2022-12-18T13:43:01;0.60;;;0.60;;
20784;SDS011;10552;45.818;12.896;2022-12-18T13:48:41;0.20;;;0.20;;
20784;SDS011;10552;45.818;12.896;2022-12-18T13:51:24;0.70;;;0.70;;
20784;SDS011;10552;45.818;12.896;2022-12-18T13:54:18;0.37;;;0.37;;
20784;SDS011;10552;45.818;12.896;2022-12-18T13:56:57;0.53;;;0.53;;
20784;SDS011;10552;45.818;12.896;2022-12-18T13:59:40;0.77;;;0.77;;
20784;SDS011;10552;45.818;12.896;2022-12-18T14:02:25;0.50;;;0.50;;
20784;SDS011;10552;45.818;12.896;2022-12-18T14:05:20;0.40;;;0.40;;
20784;SDS011;10552;45.818;12.896;2022-12-18T14:07:50;0.60;;;0.60;;
20784;SDS011;10552;45.818;12.896;2022-12-18T14:10:34;0.43;;;0.43;;
20784;SDS011;10552;45.818;12.896;2022-12-18T14:13:28;0.43;;;0.43;;
20784;SDS011;10552;45.818;12.896;2022-12-18T14:16:11;0.73;;;0.73;;
20784;SDS011;10552;45.818;12.896;2022-12-18T14:18:57;0.30;;;0.30;;
20784;SDS011;10552;45.818;12.896;2022-12-18T14:21:44;1.67;;;0.47;;
20784;SDS011;10552;45.818;12.896;2022-12-18T14:24:24;0.67;;;0.67;;
20784;SDS011;10552;45.818;12.896;2022-12-18T14:30:16;0.80;;;0.60;;
20784;SDS011;10552;45.818;12.896;2022-12-18T14:35:41;0.40;;;0.40;;
20784;SDS011;10552;45.818;12.896;2022-12-18T14:38:33;0.57;;;0.57;;
20784;SDS011;10552;45.818;12.896;2022-12-18T14:41:17;0.80;;;0.80;;
20784;SDS011;10552;45.818;12.896;2022-12-18T14:44:05;0.50;;;0.50;;
20784;SDS011;10552;45.818;12.896;2022-12-18T14:46:44;0.40;;;0.40;;
20784;SDS011;10552;45.818;12.896;2022-12-18T14:49:29;0.70;;;0.70;;
20784;SDS011;10552;45.818;12.896;2022-12-18T14:52:20;0.50;;;0.50;;
20784;SDS011;10552;45.818;12.896;2022-12-18T14:55:13;0.60;;;0.60;;
20784;SDS011;10552;45.818;12.896;2022-12-18T14:57:50;1.00;;;1.00;;
20784;SDS011;10552;45.818;12.896;2022-12-18T15:00:35;0.50;;;0.50;;
20784;SDS011;10552;45.818;12.896;2022-12-18T15:03:19;0.37;;;0.37;;
20784;SDS011;10552;45.818;12.896;2022-12-18T15:08:52;0.30;;;0.30;;
20784;SDS011;10552;45.818;12.896;2022-12-18T15:11:44;0.43;;;0.43;;
20784;SDS011;10552;45.818;12.896;2022-12-18T15:14:39;0.33;;;0.33;;
20784;SDS011;10552;45.818;12.896;2022-12-18T15:17:25;0.50;;;0.50;;
20784;SDS011;10552;45.818;12.896;2022-12-18T15:20:09;0.30;;;0.30;;
20784;SDS011;10552;45.818;12.896;2022-12-18T15:22:52;0.23;;;0.23;;
20784;SDS011;10552;45.818;12.896;2022-12-18T15:25:35;0.43;;;0.43;;
20784;SDS011;10552;45.818;12.896;2022-12-18T15:28:22;0.33;;;0.33;;
20784;SDS011;10552;45.818;12.896;2022-12-18T15:34:10;0.37;;;0.37;;
20784;SDS011;10552;45.818;12.896;2022-12-18T15:36:50;0.70;;;0.70;;
20784;SDS011;10552;45.818;12.896;2022-12-18T15:39:21;0.20;;;0.20;;
20784;SDS011;10552;45.818;12.896;2022-12-18T15:42:08;0.67;;;0.67;;
20784;SDS011;10552;45.818;12.896;2022-12-18T15:44:56;0.40;;;0.40;;
20784;SDS011;10552;45.818;12.896;2022-12-18T15:47:39;0.80;;;0.80;;
20784;SDS011;10552;45.818;12.896;2022-12-18T15:50:23;1.20;;;0.57;;
20784;SDS011;10552;45.818;12.896;2022-12-18T15:53:07;1.70;;;1.60;;
20784;SDS011;10552;45.818;12.896;2022-12-18T15:55:48;1.57;;;1.37;;
20784;SDS011;10552;45.818;12.896;2022-12-18T15:58:38;1.67;;;1.57;;
20784;SDS011;10552;45.818;12.896;2022-12-18T16:01:28;4.13;;;2.87;;
20784;SDS011;10552;45.818;12.896;2022-12-18T16:04:11;3.00;;;2.67;;
20784;SDS011;10552;45.818;12.896;2022-12-18T16:06:59;3.63;;;3.33;;
20784;SDS011;10552;45.818;12.896;2022-12-18T16:09:43;4.97;;;2.10;;
20784;SDS011;10552;45.818;12.896;2022-12-18T16:12:32;3.37;;;2.73;;
20784;SDS011;10552;45.818;12.896;2022-12-18T16:15:16;9.10;;;5.53;;
20784;SDS011;10552;45.818;12.896;2022-12-18T16:18:04;6.77;;;4.37;;
20784;SDS011;10552;45.818;12.896;2022-12-18T16:20:48;8.93;;;5.80;;
20784;SDS011;10552;45.818;12.896;2022-12-18T16:23:31;7.93;;;4.20;;
20784;SDS011;10552;45.818;12.896;2022-12-18T16:26:14;8.43;;;3.80;;
20784;SDS011;10552;45.818;12.896;2022-12-18T16:28:58;4.03;;;3.17;;
20784;SDS011;10552;45.818;12.896;2022-12-18T16:31:41;3.60;;;3.30;;
20784;SDS011;10552;45.818;12.896;2022-12-18T16:34:31;3.00;;;2.70;;
20784;SDS011;10552;45.818;12.896;2022-12-18T16:37:19;3.90;;;3.40;;
20784;SDS011;10552;45.818;12.896;2022-12-18T16:40:04;3.33;;;3.07;;
20784;SDS011;10552;45.818;12.896;2022-12-18T16:42:48;7.33;;;3.33;;
20784;SDS011;10552;45.818;12.896;2022-12-18T16:48:20;3.67;;;2.53;;
20784;SDS011;10552;45.818;12.896;2022-12-18T16:51:04;2.43;;;2.23;;
20784;SDS011;10552;45.818;12.896;2022-12-18T16:53:47;3.80;;;3.20;;
20784;SDS011;10552;45.818;12.896;2022-12-18T16:56:30;2.93;;;2.63;;
20784;SDS011;10552;45.818;12.896;2022-12-18T16:59:13;1.77;;;1.67;;
20784;SDS011;10552;45.818;12.896;2022-12-18T17:02:02;3.87;;;3.13;;
20784;SDS011;10552;45.818;12.896;2022-12-18T17:04:46;4.07;;;2.57;;
20784;SDS011;10552;45.818;12.896;2022-12-18T17:07:29;3.67;;;2.30;;
20784;SDS011;10552;45.818;12.896;2022-12-18T17:10:12;2.60;;;2.40;;
20784;SDS011;10552;45.818;12.896;2022-12-18T17:13:03;1.77;;;1.67;;
20784;SDS011;10552;45.818;12.896;2022-12-18T17:15:45;3.10;;;1.87;;
20784;SDS011;10552;45.818;12.896;2022-12-18T17:18:29;3.10;;;2.07;;
20784;SDS011;10552;45.818;12.896;2022-12-18T17:21:13;2.37;;;1.47;;
20784;SDS011;10552;45.818;12.896;2022-12-18T17:24:02;2.07;;;1.97;;
20784;SDS011;10552;45.818;12.896;2022-12-18T17:26:45;1.53;;;1.17;;